Iep Invest (IEP) Latest Bloomsberg Price


Mffais Ranking #39 Overall / #1 Industry
Industry: Auto Parts

Number of Companies: 70 (Ranking #2011 Overall/#25 Industry)
Inflow: $ 196,385 (K) (Ranking #608 Overall/#7 Industry)
Outflow: $ -10,320 (K)
Mffais Flow: $ 186,064 (K) (Ranking #39 Overall/#1 Industry)


Receive a FREE weekly executive review of stocks moving into the top 10, taking the top industy spot or moving up within their industry. Sent directly to your Inbox every Saturday. Sign up today and get last week's review immediately sent to you.

We value and respect your privacy. Please read our Terms and Conditions which states our firm commitment to your privacy. Your email address will not be shared with a third party, nor will it be sold or used for purposes other than subscription for the weekly review.

Owner CPOR Shares Action Qty Chg Invested (K) Total Current Value (K)
Icahn Carl C 2016-09-30 127,072,847 Added More 3,520,975 $ 185,344 $ 6,689,114
Rafferty Asset Management Llc 2016-09-30 51,110 New Holding 51,110 $ 2,690 $ 2,690
Boyle Capital Management Llc 2016-09-30 35,415 New Holding 35,415 $ 1,864 $ 1,864
Raymond James Associates 2016-09-30 39,773 Added More 28,182 $ 1,483 $ 2,093
Global X Management Co Llc 2016-09-30 137,344 Added More 19,380 $ 1,020 $ 7,229
Sanders Morris Harris Inc 2016-09-30 72,787 Added More 18,700 $ 984 $ 3,831
Creative Planning 2016-09-30 24,756 Added More 18,114 $ 953 $ 1,303
Cutler Group Lp 2016-09-30 26,947 Added More 11,931 $ 628 $ 1,418
Arete Wealth Advisors Llc 2016-09-30 6,613 New Holding 6,613 $ 348 $ 348
Group One Trading L P 2016-09-30 5,902 New Holding 5,902 $ 310 $ 310
Guggenheim Capital Llc 2016-09-30 26,854 Added More 4,091 $ 215 $ 1,413
Deere Co 2016-09-30 18,788 Added More 3,254 $ 171 $ 989
Mad River Investors 2016-09-30 133,868 Added More 1,520 $ 80 $ 7,046
Ladenburg Thalmann Financial Services Inc 2016-09-30 7,045 Added More 1,429 $ 75 $ 370
National Asset Management Inc 2016-09-30 21,318 Added More 1,426 $ 75 $ 1,122
Advisor Group Inc 2016-09-30 6,619 Added More 752 $ 39 $ 348
Pnc Financial Services Group Inc 2016-09-30 16,355 Added More 563 $ 29 $ 860
Acrospire Investment Management Llc 2016-09-30 495 New Holding 495 $ 26 $ 26
Financial Architects Inc 2016-09-30 1,500 Added More 200 $ 10 $ 78
Us Bancorp De 2016-09-30 1,272 Added More 145 $ 7 $ 66
Ipg Investment Advisors Llc 2016-09-30 4,437 Added More 125 $ 6 $ 233
Cwm Llc 2016-09-30 100 New Holding 100 $ 5 $ 5
Oppenheimer Co Inc 2016-09-30 8,050 Added More 97 $ 5 $ 423
Ifp Advisors Inc 2016-09-30 2,705 Added More 76 $ 4 $ 142
Capwealth Advisors Llc 2016-09-30 43,233 Added More 63 $ 3 $ 2,275
Allen Investment Management Llc 2016-09-30 6,789 Added More 35 $ 1 $ 357
Wfg Advisors Lp 2016-09-30 827 Added More 28 $ 1 $ 43
Wealthtrust-Arizona Llc 2016-09-30 141 Added More 4 $ 0 $ 7
Stanford Investment Group Inc 2016-09-30 21 Added More 1 $ 0 $ 1
Cranbrook Wealth Management Llc 2016-09-30 10 No Change 0 $ 0 $ 0
Capital Guardian Trust Co 2016-09-30 1,000 No Change 0 $ 0 $ 52
Thrivent Financial For Lutherans 2016-09-30 152 No Change 0 $ 0 $ 8
Qci Asset Management Inc Ny 2016-09-30 1,500 No Change 0 $ 0 $ 78
Cibc Asset Management Inc 2016-09-30 4,134 No Change 0 $ 0 $ 217
Whittier Trust Co 2016-09-30 968 No Change 0 $ 0 $ 50
Farmers Merchants Investments Inc 2016-09-30 152 No Change 0 $ 0 $ 8
Veritable L P 2016-09-30 6,212 No Change 0 $ 0 $ 327
Cribstone Capital Management Llc 2016-09-30 45 No Change 0 $ 0 $ 2
Integrated Investment Consultants Llc 2016-09-30 300 No Change 0 $ 0 $ 15
Plante Moran Financial Advisors Llc 2016-09-30 101 No Change 0 $ 0 $ 5
Tower Research Capital Llc Trc 2016-09-30 100 No Change 0 $ 0 $ 5
Finemark National Bank Trust 2016-09-30 1,000 No Change 0 $ 0 $ 52
Lba Wealth Management Llc 2016-09-30 1,549 No Change 0 $ 0 $ 81
Carroll Financial Associates Inc 2016-09-30 8 No Change 0 $ 0 $ 0
Concannon Wealth Management Llc 2016-09-30 350 No Change 0 $ 0 $ 18
Alexandria Capital Llc 2016-09-30 210 No Change 0 $ 0 $ 11
Focused Wealth Management Inc 2016-09-30 100 No Change 0 $ 0 $ 5
Kcg Holdings Inc 2016-09-30 4,547 Sold Some -65 $ -3 $ 239
Envestnet Asset Management Inc 2016-09-30 1,197 Sold Some -81 $ -4 $ 63
Next Financial Group Inc 2016-09-30 152 Sold Some -200 $ -10 $ 8
Harel Insurance Investments Financial Services Ltd 2016-09-30 0 Sold All -220 $ -11 $ 0
Vantage Investment Advisors Llc 2016-09-30 248 Sold Some -237 $ -12 $ 13
Msi Financial Services Inc 2016-09-30 3,030 Sold Some -267 $ -14 $ 159
Hsbc Holdings Plc 2016-09-30 13,575 Sold Some -340 $ -17 $ 714
Cambridge Investment Research Advisors Inc 2016-09-30 5,296 Sold Some -677 $ -35 $ 278
Diligent Investors Llc 2016-09-30 9,354 Sold Some -700 $ -36 $ 492
Texas Yale Capital Corp 2016-09-30 64,375 Sold Some -3,825 $ -201 $ 3,388
Stifel Financial Corp 2016-09-30 0 Sold All -3,885 $ -204 $ 0
Jane Street Group Llc 2016-09-30 0 Sold All -4,617 $ -243 $ 0
Prospera Financial Services Inc 2016-09-30 0 Sold All -4,829 $ -254 $ 0
Advisory Services Network Llc 2016-09-30 2,205 Sold Some -5,233 $ -275 $ 116
Simplex Trading Llc 2016-09-30 0 Sold All -5,636 $ -296 $ 0
Chelsea Counsel Co 2016-09-30 0 Sold All -6,000 $ -315 $ 0
Spot Trading L L C 2016-09-30 26,729 Sold Some -6,210 $ -326 $ 1,407
Coe Capital Management Llc 2016-09-30 0 Sold All -6,307 $ -332 $ 0
Commonwealth Equity Services Inc 2016-09-30 12,689 Sold Some -6,369 $ -335 $ 667
Peak6 Investments L P 2016-09-30 0 Sold All -6,701 $ -352 $ 0
National Planning Corp 2016-09-30 0 Sold All -10,554 $ -555 $ 0
Walleye Trading Llc 2016-09-30 13,404 Sold Some -30,596 $ -1,610 $ 705
Horizon Kinetics Llc 2016-09-30 3,290,865 Sold Some -92,516 $ -4,870 $ 173,231